sensor_id;sensor_type;location;lat;lon;timestamp;pressure;altitude;pressure_sealevel;temperature;humidity
36600;BME280;35385;55.668;37.508;2024-01-15T00:00:00;97236.19;;;-8.32;100.00
36600;BME280;35385;55.668;37.508;2024-01-15T00:01:00;97222.94;;;-8.26;100.00
36600;BME280;35385;55.668;37.508;2024-01-15T00:02:01;97233.97;;;-8.22;100.00
36600;BME280;35385;55.668;37.508;2024-01-15T00:03:01;97225.53;;;-8.26;100.00
36600;BME280;35385;55.668;37.508;2024-01-15T00:04:02;97227.34;;;-8.28;100.00
36600;BME280;35385;55.668;37.508;2024-01-15T00:05:03;97236.03;;;-8.29;100.00
36600;BME280;35385;55.668;37.508;2024-01-15T00:06:04;97229.94;;;-8.28;100.00
36600;BME280;35385;55.668;37.508;2024-01-15T00:07:04;97225.53;;;-8.26;100.00
36600;BME280;35385;55.668;37.508;2024-01-15T00:08:05;97231.06;;;-8.14;100.00
36600;BME280;35385;55.668;37.508;2024-01-15T00:09:05;97230.59;;;-8.23;100.00
36600;BME280;35385;55.668;37.508;2024-01-15T00:10:06;97219.59;;;-8.28;100.00
36600;BME280;35385;55.668;37.508;2024-01-15T00:11:07;97221.72;;;-8.18;100.00
36600;BME280;35385;55.668;37.508;2024-01-15T00:12:07;97218.31;;;-8.19;100.00
36600;BME280;35385;55.668;37.508;2024-01-15T00:13:08;97222.38;;;-8.13;100.00
36600;BME280;35385;55.668;37.508;2024-01-15T00:14:08;97222.22;;;-8.10;100.00
36600;BME280;35385;55.668;37.508;2024-01-15T00:15:09;97215.84;;;-8.03;100.00
36600;BME280;35385;55.668;37.508;2024-01-15T00:16:09;97222.38;;;-8.13;100.00
36600;BME280;35385;55.668;37.508;2024-01-15T00:17:10;97217.25;;;-8.15;100.00
36600;BME280;35385;55.668;37.508;2024-01-15T00:18:11;97223.00;;;-8.08;100.00
36600;BME280;35385;55.668;37.508;2024-01-15T00:19:11;97219.84;;;-8.15;100.00
36600;BME280;35385;55.668;37.508;2024-01-15T00:20:11;97213.06;;;-8.17;100.00
36600;BME280;35385;55.668;37.508;2024-01-15T00:21:12;97218.88;;;-8.12;100.00
36600;BME280;35385;55.668;37.508;2024-01-15T00:22:12;97219.66;;;-8.10;100.00
36600;BME280;35385;55.668;37.508;2024-01-15T00:23:13;97215.78;;;-8.21;100.00
36600;BME280;35385;55.668;37.508;2024-01-15T00:24:13;97217.47;;;-8.20;100.00
36600;BME280;35385;55.668;37.508;2024-01-15T00:25:13;97211.31;;;-8.17;100.00
36600;BME280;35385;55.668;37.508;2024-01-15T00:26:14;97214.53;;;-8.12;100.00
36600;BME280;35385;55.668;37.508;2024-01-15T00:27:15;97214.28;;;-8.07;100.00
36600;BME280;35385;55.668;37.508;2024-01-15T00:28:15;97209.88;;;-8.05;100.00
36600;BME280;35385;55.668;37.508;2024-01-15T00:29:16;97209.22;;;-8.09;100.00
36600;BME280;35385;55.668;37.508;2024-01-15T00:30:16;97206.38;;;-8.04;100.00
36600;BME280;35385;55.668;37.508;2024-01-15T00:31:17;97207.16;;;-8.02;100.00
36600;BME280;35385;55.668;37.508;2024-01-15T00:32:18;97217.44;;;-8.01;100.00
36600;BME280;35385;55.668;37.508;2024-01-15T00:33:18;97203.53;;;-7.98;100.00
36600;BME280;35385;55.668;37.508;2024-01-15T00:34:18;97198.69;;;-8.06;100.00
36600;BME280;35385;55.668;37.508;2024-01-15T00:35:19;97199.25;;;-7.99;100.00
36600;BME280;35385;55.668;37.508;2024-01-15T00:36:19;97201.47;;;-7.92;100.00
36600;BME280;35385;55.668;37.508;2024-01-15T00:37:20;97199.53;;;-8.05;100.00
36600;BME280;35385;55.668;37.508;2024-01-15T00:38:20;97196.72;;;-8.01;100.00
36600;BME280;35385;55.668;37.508;2024-01-15T00:39:20;97197.56;;;-8.00;100.00
36600;BME280;35385;55.668;37.508;2024-01-15T00:40:21;97194.28;;;-8.04;100.00
36600;BME280;35385;55.668;37.508;2024-01-15T00:41:21;97196.72;;;-8.01;100.00
36600;BME280;35385;55.668;37.508;2024-01-15T00:42:22;97202.59;;;-7.97;100.00
36600;BME280;35385;55.668;37.508;2024-01-15T00:43:22;97200.78;;;-7.95;100.00
36600;BME280;35385;55.668;37.508;2024-01-15T00:44:23;97196.03;;;-8.04;100.00
36600;BME280;35385;55.668;37.508;2024-01-15T00:45:23;97199.69;;;-8.08;100.00
36600;BME280;35385;55.668;37.508;2024-01-15T00:46:24;97197.72;;;-8.03;100.00
36600;BME280;35385;55.668;37.508;2024-01-15T00:47:24;97189.59;;;-7.96;100.00
36600;BME280;35385;55.668;37.508;2024-01-15T00:48:24;97196.72;;;-8.01;100.00
36600;BME280;35385;55.668;37.508;2024-01-15T00:49:26;97189.16;;;-8.05;100.00
36600;BME280;35385;55.668;37.508;2024-01-15T00:50:27;97193.16;;;-7.98;100.00
36600;BME280;35385;55.668;37.508;2024-01-15T00:51:27;97191.34;;;-7.96;100.00
36600;BME280;35385;55.668;37.508;2024-01-15T00:52:28;97183.63;;;-7.98;100.00
36600;BME280;35385;55.668;37.508;2024-01-15T00:53:28;97188.16;;;-7.84;100.00
36600;BME280;35385;55.668;37.508;2024-01-15T00:54:29;97191.16;;;-7.93;100.00
36600;BME280;35385;55.668;37.508;2024-01-15T00:55:29;97193.63;;;-7.90;100.00
36600;BME280;35385;55.668;37.508;2024-01-15T00:56:29;97183.38;;;-7.93;100.00
36600;BME280;35385;55.668;37.508;2024-01-15T00:57:30;97185.25;;;-7.95;100.00
36600;BME280;35385;55.668;37.508;2024-01-15T00:58:30;97186.75;;;-7.91;100.00
36600;BME280;35385;55.668;37.508;2024-01-15T00:59:31;97181.75;;;-7.94;100.00
36600;BME280;35385;55.668;37.508;2024-01-15T01:00:31;97186.81;;;-7.93;100.00
36600;BME280;35385;55.668;37.508;2024-01-15T01:01:31;97186.63;;;-7.88;100.00
36600;BME280;35385;55.668;37.508;2024-01-15T01:02:32;97186.63;;;-7.88;100.00
36600;BME280;35385;55.668;37.508;2024-01-15T01:03:32;97175.41;;;-7.89;100.00
36600;BME280;35385;55.668;37.508;2024-01-15T01:04:33;97184.09;;;-7.90;100.00
36600;BME280;35385;55.668;37.508;2024-01-15T01:05:36;97177.09;;;-7.88;100.00
36600;BME280;35385;55.668;37.508;2024-01-15T01:06:37;97177.63;;;-7.81;100.00
36600;BME280;35385;55.668;37.508;2024-01-15T01:07:38;97183.25;;;-7.90;100.00
36600;BME280;35385;55.668;37.508;2024-01-15T01:08:39;97172.97;;;-7.92;100.00
36600;BME280;35385;55.668;37.508;2024-01-15T01:09:39;97181.28;;;-7.85;100.00
36600;BME280;35385;55.668;37.508;2024-01-15T01:10:39;97175.25;;;-7.86;100.00
36600;BME280;35385;55.668;37.508;2024-01-15T01:11:42;97181.16;;;-7.82;100.00
36600;BME280;35385;55.668;37.508;2024-01-15T01:12:43;97181.22;;;-7.83;100.00
36600;BME280;35385;55.668;37.508;2024-01-15T01:13:43;97171.84;;;-7.86;100.00
36600;BME280;35385;55.668;37.508;2024-01-15T01:14:44;97169.25;;;-7.86;100.00
36600;BME280;35385;55.668;37.508;2024-01-15T01:15:44;97171.06;;;-7.88;100.00
36600;BME280;35385;55.668;37.508;2024-01-15T01:16:44;97175.06;;;-7.81;100.00
36600;BME280;35385;55.668;37.508;2024-01-15T01:17:45;97164.06;;;-7.86;100.00
36600;BME280;35385;55.668;37.508;2024-01-15T01:18:46;97162.38;;;-7.87;100.00
36600;BME280;35385;55.668;37.508;2024-01-15T01:19:46;97167.28;;;-7.81;100.00
36600;BME280;35385;55.668;37.508;2024-01-15T01:20:47;97164.38;;;-7.75;100.00
36600;BME280;35385;55.668;37.508;2024-01-15T01:21:47;97159.94;;;-7.73;100.00
36600;BME280;35385;55.668;37.508;2024-01-15T01:22:48;97156.53;;;-7.73;100.00
36600;BME280;35385;55.668;37.508;2024-01-15T01:23:48;97163.16;;;-7.68;100.00
36600;BME280;35385;55.668;37.508;2024-01-15T01:24:48;97154.63;;;-7.70;100.00
36600;BME280;35385;55.668;37.508;2024-01-15T01:25:49;97158.28;;;-7.74;100.00
36600;BME280;35385;55.668;37.508;2024-01-15T01:26:49;97158.91;;;-7.69;100.00
36600;BME280;35385;55.668;37.508;2024-01-15T01:27:49;97155.25;;;-7.65;100.00
36600;BME280;35385;55.668;37.508;2024-01-15T01:28:50;97157.66;;;-7.62;100.00
36600;BME280;35385;55.668;37.508;2024-01-15T01:29:50;97157.00;;;-7.65;100.00
36600;BME280;35385;55.668;37.508;2024-01-15T01:30:51;97154.47;;;-7.67;100.00
36600;BME280;35385;55.668;37.508;2024-01-15T01:31:52;97147.91;;;-7.74;100.00
36600;BME280;35385;55.668;37.508;2024-01-15T01:32:52;97151.25;;;-7.72;100.00
36600;BME280;35385;55.668;37.508;2024-01-15T01:33:53;97154.63;;;-7.70;100.00
36600;BME280;35385;55.668;37.508;2024-01-15T01:34:53;97152.66;;;-7.65;100.00
36600;BME280;35385;55.668;37.508;2024-01-15T01:35:53;97148.97;;;-7.61;100.00
36600;BME280;35385;55.668;37.508;2024-01-15T01:36:54;97149.88;;;-7.62;100.00
36600;BME280;35385;55.668;37.508;2024-01-15T01:37:54;97147.38;;;-7.63;100.00
36600;BME280;35385;55.668;37.508;2024-01-15T01:38:55;97150.50;;;-7.57;100.00
36600;BME280;35385;55.668;37.508;2024-01-15T01:39:55;97152.94;;;-7.54;100.00
36600;BME280;35385;55.668;37.508;2024-01-15T01:40:55;97132.97;;;-7.52;100.00
36600;BME280;35385;55.668;37.508;2024-01-15T01:41:56;97151.50;;;-7.59;100.00
36600;BME280;35385;55.668;37.508;2024-01-15T01:42:57;97149.59;;;-7.56;100.00
36600;BME280;35385;55.668;37.508;2024-01-15T01:43:57;97136.47;;;-7.53;100.00
36600;BME280;35385;55.668;37.508;2024-01-15T01:44:58;97145.59;;;-7.45;100.00
36600;BME280;35385;55.668;37.508;2024-01-15T01:45:59;97141.34;;;-7.46;100.00
36600;BME280;35385;55.668;37.508;2024-01-15T01:47:00;97144.63;;;-7.43;100.00
36600;BME280;35385;55.668;37.508;2024-01-15T01:48:01;97146.53;;;-7.46;100.00
36600;BME280;35385;55.668;37.508;2024-01-15T01:49:01;97145.75;;;-7.49;100.00
36600;BME280;35385;55.668;37.508;2024-01-15T01:50:05;97146.66;;;-7.50;100.00
36600;BME280;35385;55.668;37.508;2024-01-15T01:51:06;97139.72;;;-7.49;100.00
36600;BME280;35385;55.668;37.508;2024-01-15T01:52:07;97134.47;;;-7.47;100.00
36600;BME280;35385;55.668;37.508;2024-01-15T01:53:09;97133.63;;;-7.48;100.00
36600;BME280;35385;55.668;37.508;2024-01-15T01:54:10;97142.03;;;-7.43;100.00
36600;BME280;35385;55.668;37.508;2024-01-15T01:55:13;97136.44;;;-7.35;100.00
36600;BME280;35385;55.668;37.508;2024-01-15T01:56:14;97137.81;;;-7.28;100.00
36600;BME280;35385;55.668;37.508;2024-01-15T01:57:15;97129.19;;;-7.29;100.00
36600;BME280;35385;55.668;37.508;2024-01-15T01:58:17;97128.50;;;-7.32;100.00
36600;BME280;35385;55.668;37.508;2024-01-15T01:59:17;97132.19;;;-7.36;100.00
36600;BME280;35385;55.668;37.508;2024-01-15T02:00:18;97124.09;;;-7.30;100.00
36600;BME280;35385;55.668;37.508;2024-01-15T02:01:18;97124.44;;;-7.21;100.00
36600;BME280;35385;55.668;37.508;2024-01-15T02:02:19;97116.50;;;-7.18;100.00
36600;BME280;35385;55.668;37.508;2024-01-15T02:03:20;97124.28;;;-7.18;100.00
36600;BME280;35385;55.668;37.508;2024-01-15T02:04:22;97123.78;;;-7.24;100.00
36600;BME280;35385;55.668;37.508;2024-01-15T02:05:23;97121.25;;;-7.26;100.00
36600;BME280;35385;55.668;37.508;2024-01-15T02:06:24;97124.84;;;-7.28;100.00
36600;BME280;35385;55.668;37.508;2024-01-15T02:07:24;97125.00;;;-7.31;100.00
36600;BME280;35385;55.668;37.508;2024-01-15T02:08:25;97123.78;;;-7.24;100.00
36600;BME280;35385;55.668;37.508;2024-01-15T02:09:26;97123.28;;;-7.15;100.00
36600;BME280;35385;55.668;37.508;2024-01-15T02:10:26;97124.75;;;-7.09;100.00
36600;BME280;35385;55.668;37.508;2024-01-15T02:11:27;97111.78;;;-7.09;100.00
36600;BME280;35385;55.668;37.508;2024-01-15T02:12:27;97120.63;;;-7.14;100.00
36600;BME280;35385;55.668;37.508;2024-01-15T02:13:28;97122.06;;;-7.08;100.00
36600;BME280;35385;55.668;37.508;2024-01-15T02:14:28;97121.88;;;-7.05;100.00
36600;BME280;35385;55.668;37.508;2024-01-15T02:15:29;97113.69;;;-7.13;100.00
36600;BME280;35385;55.668;37.508;2024-01-15T02:16:29;97115.78;;;-7.04;100.00
36600;BME280;35385;55.668;37.508;2024-01-15T02:17:30;97113.56;;;-6.94;100.00
36600;BME280;35385;55.668;37.508;2024-01-15T02:18:38;97120.78;;;-6.84;100.00
36600;BME280;35385;55.668;37.508;2024-01-15T02:19:59;97119.59;;;-6.94;100.00
36600;BME280;35385;55.668;37.508;2024-01-15T02:21:00;97125.69;;;-6.95;100.00
36600;BME280;35385;55.668;37.508;2024-01-15T02:22:00;97118.91;;;-6.97;100.00
36600;BME280;35385;55.668;37.508;2024-01-15T02:24:04;97118.81;;;-6.96;100.00
36600;BME280;35385;55.668;37.508;2024-01-15T02:25:05;97117.91;;;-6.95;100.00
36600;BME280;35385;55.668;37.508;2024-01-15T02:26:05;97121.09;;;-6.90;100.00
36600;BME280;35385;55.668;37.508;2024-01-15T02:27:06;97123.94;;;-6.94;100.00
36600;BME280;35385;55.668;37.508;2024-01-15T02:28:10;97123.41;;;-7.01;100.00
36600;BME280;35385;55.668;37.508;2024-01-15T02:29:10;97117.31;;;-7.00;100.00
36600;BME280;35385;55.668;37.508;2024-01-15T02:30:11;97115.88;;;-6.90;100.00
36600;BME280;35385;55.668;37.508;2024-01-15T02:31:12;97117.56;;;-6.89;100.00
36600;BME280;35385;55.668;37.508;2024-01-15T02:32:12;97117.09;;;-6.80;100.00
36600;BME280;35385;55.668;37.508;2024-01-15T02:33:13;97123.69;;;-6.74;100.00
36600;BME280;35385;55.668;37.508;2024-01-15T02:34:13;97115.22;;;-6.78;100.00
36600;BME280;35385;55.668;37.508;2024-01-15T02:35:14;97110.47;;;-6.69;100.00
36600;BME280;35385;55.668;37.508;2024-01-15T02:36:14;97123.78;;;-6.75;100.00
36600;BME280;35385;55.668;37.508;2024-01-15T02:37:15;97120.94;;;-6.87;100.00
36600;BME280;35385;55.668;37.508;2024-01-15T02:38:15;97125.28;;;-6.87;100.00
36600;BME280;35385;55.668;37.508;2024-01-15T02:39:16;97114.91;;;-6.87;100.00
36600;BME280;35385;55.668;37.508;2024-01-15T02:40:16;97123.38;;;-6.84;100.00
36600;BME280;35385;55.668;37.508;2024-01-15T02:41:16;97113.91;;;-6.85;100.00
36600;BME280;35385;55.668;37.508;2024-01-15T02:42:17;97120.09;;;-6.87;100.00
36600;BME280;35385;55.668;37.508;2024-01-15T02:43:17;97125.03;;;-6.83;100.00
36600;BME280;35385;55.668;37.508;2024-01-15T02:44:19;97122.28;;;-6.80;100.00
36600;BME280;35385;55.668;37.508;2024-01-15T02:45:19;97122.44;;;-6.83;100.00
36600;BME280;35385;55.668;37.508;2024-01-15T02:46:20;97118.84;;;-6.80;100.00
36600;BME280;35385;55.668;37.508;2024-01-15T02:47:20;97110.16;;;-6.79;100.00
36600;BME280;35385;55.668;37.508;2024-01-15T02:48:21;97109.72;;;-6.71;100.00
36600;BME280;35385;55.668;37.508;2024-01-15T02:49:21;97109.97;;;-6.60;100.00
36600;BME280;35385;55.668;37.508;2024-01-15T02:50:22;97117.59;;;-6.57;100.00
36600;BME280;35385;55.668;37.508;2024-01-15T02:51:22;97119.28;;;-6.56;100.00
36600;BME280;35385;55.668;37.508;2024-01-15T02:52:22;97112.41;;;-6.57;100.00
36600;BME280;35385;55.668;37.508;2024-01-15T02:53:23;97112.94;;;-6.51;100.00
36600;BME280;35385;55.668;37.508;2024-01-15T02:54:23;97110.06;;;-6.46;100.00
36600;BME280;35385;55.668;37.508;2024-01-15T02:55:24;97110.13;;;-6.48;100.00
36600;BME280;35385;55.668;37.508;2024-01-15T02:56:24;97107.22;;;-6.57;100.00
36600;BME280;35385;55.668;37.508;2024-01-15T02:57:24;97109.81;;;-6.57;100.00
36600;BME280;35385;55.668;37.508;2024-01-15T02:58:25;97114.94;;;-6.56;100.00
36600;BME280;35385;55.668;37.508;2024-01-15T02:59:25;97112.94;;;-6.51;100.00
36600;BME280;35385;55.668;37.508;2024-01-15T03:00:25;97108.81;;;-6.39;100.00
36600;BME280;35385;55.668;37.508;2024-01-15T03:01:26;97113.41;;;-6.44;100.00
36600;BME280;35385;55.668;37.508;2024-01-15T03:02:26;97101.69;;;-6.35;100.00
36600;BME280;35385;55.668;37.508;2024-01-15T03:03:27;97098.16;;;-6.34;100.00
36600;BME280;35385;55.668;37.508;2024-01-15T03:04:27;97110.66;;;-6.41;100.00
36600;BME280;35385;55.668;37.508;2024-01-15T03:05:27;97102.19;;;-6.45;100.00
36600;BME280;35385;55.668;37.508;2024-01-15T03:06:28;97098.50;;;-6.40;100.00
36600;BME280;35385;55.668;37.508;2024-01-15T03:07:28;97099.19;;;-6.37;100.00
36600;BME280;35385;55.668;37.508;2024-01-15T03:08:29;97098.66;;;-6.28;100.00
36600;BME280;35385;55.668;37.508;2024-01-15T03:09:29;97101.78;;;-6.21;100.00
36600;BME280;35385;55.668;37.508;2024-01-15T03:10:29;97097.50;;;-6.22;100.00
36600;BME280;35385;55.668;37.508;2024-01-15T03:11:30;97100.19;;;-6.24;100.00
36600;BME280;35385;55.668;37.508;2024-01-15T03:12:36;97099.66;;;-6.30;100.00
36600;BME280;35385;55.668;37.508;2024-01-15T03:13:37;97103.78;;;-6.26;100.00
36600;BME280;35385;55.668;37.508;2024-01-15T03:14:37;97100.34;;;-6.27;100.00
36600;BME280;35385;55.668;37.508;2024-01-15T03:15:37;97090.72;;;-6.40;100.00
36600;BME280;35385;55.668;37.508;2024-01-15T03:16:38;97082.25;;;-6.44;100.00
36600;BME280;35385;55.668;37.508;2024-01-15T03:17:38;97100.03;;;-6.36;100.00
36600;BME280;35385;55.668;37.508;2024-01-15T03:18:39;97096.38;;;-6.34;100.00
36600;BME280;35385;55.668;37.508;2024-01-15T03:19:39;97097.50;;;-6.38;100.00
36600;BME280;35385;55.668;37.508;2024-01-15T03:20:39;97088.50;;;-6.32;100.00
36600;BME280;35385;55.668;37.508;2024-01-15T03:21:40;97091.13;;;-6.32;100.00
36600;BME280;35385;55.668;37.508;2024-01-15T03:22:40;97092.41;;;-6.39;100.00
36600;BME280;35385;55.668;37.508;2024-01-15T03:23:41;97090.63;;;-6.39;100.00
36600;BME280;35385;55.668;37.508;2024-01-15T03:24:41;97084.06;;;-6.30;100.00
36600;BME280;35385;55.668;37.508;2024-01-15T03:25:42;97086.59;;;-6.29;100.00
36600;BME280;35385;55.668;37.508;2024-01-15T03:26:42;97082.31;;;-6.30;100.00
36600;BME280;35385;55.668;37.508;2024-01-15T03:27:42;97103.53;;;-6.22;100.00
36600;BME280;35385;55.668;37.508;2024-01-15T03:28:43;97086.00;;;-6.34;100.00
36600;BME280;35385;55.668;37.508;2024-01-15T03:29:43;97094.16;;;-6.40;100.00
36600;BME280;35385;55.668;37.508;2024-01-15T03:30:44;97087.97;;;-6.37;100.00
36600;BME280;35385;55.668;37.508;2024-01-15T03:31:44;97087.59;;;-6.31;100.00
36600;BME280;35385;55.668;37.508;2024-01-15T03:32:44;97089.78;;;-6.24;100.00
36600;BME280;35385;55.668;37.508;2024-01-15T03:33:45;97081.81;;;-6.21;100.00
36600;BME280;35385;55.668;37.508;2024-01-15T03:34:45;97080.53;;;-6.14;100.00
36600;BME280;35385;55.668;37.508;2024-01-15T03:35:47;97078.84;;;-6.15;100.00
36600;BME280;35385;55.668;37.508;2024-01-15T03:36:48;97079.53;;;-6.11;100.00
36600;BME280;35385;55.668;37.508;2024-01-15T03:37:48;97075.16;;;-6.11;100.00
36600;BME280;35385;55.668;37.508;2024-01-15T03:38:48;97079.44;;;-6.10;100.00
36600;BME280;35385;55.668;37.508;2024-01-15T03:39:49;97070.38;;;-6.02;100.00
36600;BME280;35385;55.668;37.508;2024-01-15T03:40:49;97080.97;;;-5.91;100.00
36600;BME280;35385;55.668;37.508;2024-01-15T03:41:49;97083.84;;;-5.96;100.00
36600;BME280;35385;55.668;37.508;2024-01-15T03:42:50;97078.56;;;-5.94;100.00
36600;BME280;35385;55.668;37.508;2024-01-15T03:43:51;97081.09;;;-5.93;100.00
36600;BME280;35385;55.668;37.508;2024-01-15T03:44:51;97074.13;;;-5.92;100.00
36600;BME280;35385;55.668;37.508;2024-01-15T03:45:52;97074.13;;;-5.92;100.00
36600;BME280;35385;55.668;37.508;2024-01-15T03:46:52;97081.34;;;-5.97;100.00
36600;BME280;35385;55.668;37.508;2024-01-15T03:47:53;97076.16;;;-5.97;100.00
36600;BME280;35385;55.668;37.508;2024-01-15T03:48:53;97073.19;;;-5.91;100.00
36600;BME280;35385;55.668;37.508;2024-01-15T03:49:53;97073.81;;;-5.88;100.00
36600;BME280;35385;55.668;37.508;2024-01-15T03:50:54;97080.41;;;-5.96;100.00
36600;BME280;35385;55.668;37.508;2024-01-15T03:51:54;97078.91;;;-6.00;100.00
36600;BME280;35385;55.668;37.508;2024-01-15T03:52:54;97074.63;;;-6.01;100.00
36600;BME280;35385;55.668;37.508;2024-01-15T03:53:55;97073.09;;;-5.90;100.00
36600;BME280;35385;55.668;37.508;2024-01-15T03:54:55;97076.53;;;-5.89;100.00
36600;BME280;35385;55.668;37.508;2024-01-15T03:55:56;97078.66;;;-5.82;100.00
36600;BME280;35385;55.668;37.508;2024-01-15T03:56:56;97075.97;;;-5.80;100.00
36600;BME280;35385;55.668;37.508;2024-01-15T03:57:56;97077.75;;;-5.81;100.00
36600;BME280;35385;55.668;37.508;2024-01-15T03:58:57;97071.31;;;-5.89;100.00
36600;BME280;35385;55.668;37.508;2024-01-15T03:59:57;97076.53;;;-5.89;100.00
36600;BME280;35385;55.668;37.508;2024-01-15T04:00:58;97062.72;;;-6.06;100.00
36600;BME280;35385;55.668;37.508;2024-01-15T04:01:58;97071.66;;;-6.10;100.00
36600;BME280;35385;55.668;37.508;2024-01-15T04:02:58;97067.41;;;-5.96;100.00
36600;BME280;35385;55.668;37.508;2024-01-15T04:03:59;97068.94;;;-5.92;100.00
36600;BME280;35385;55.668;37.508;2024-01-15T04:04:59;97070.56;;;-5.91;100.00
36600;BME280;35385;55.668;37.508;2024-01-15T04:06:00;97067.81;;;-5.88;100.00
36600;BME280;35385;55.668;37.508;2024-01-15T04:07:00;97065.84;;;-5.85;100.00
36600;BME280;35385;55.668;37.508;2024-01-15T04:08:00;97069.28;;;-5.84;100.00
36600;BME280;35385;55.668;37.508;2024-01-15T04:09:01;97064.84;;;-5.82;100.00
36600;BME280;35385;55.668;37.508;2024-01-15T04:10:01;97060.00;;;-5.88;100.00
36600;BME280;35385;55.668;37.508;2024-01-15T04:11:03;97065.56;;;-5.94;100.00
36600;BME280;35385;55.668;37.508;2024-01-15T04:12:04;97065.38;;;-5.91;100.00
36600;BME280;35385;55.668;37.508;2024-01-15T04:13:04;97064.25;;;-5.87;100.00
36600;BME280;35385;55.668;37.508;2024-01-15T04:14:05;97066.13;;;-5.89;100.00
36600;BME280;35385;55.668;37.508;2024-01-15T04:15:05;97071.31;;;-5.89;100.00
36600;BME280;35385;55.668;37.508;2024-01-15T04:16:06;97068.09;;;-5.93;100.00
36600;BME280;35385;55.668;37.508;2024-01-15T04:17:06;97070.56;;;-5.91;100.00
36600;BME280;35385;55.668;37.508;2024-01-15T04:18:07;97064.25;;;-5.87;100.00
36600;BME280;35385;55.668;37.508;2024-01-15T04:19:07;97068.34;;;-5.83;100.00
36600;BME280;35385;55.668;37.508;2024-01-15T04:20:08;97073.72;;;-5.86;100.00
36600;BME280;35385;55.668;37.508;2024-01-15T04:21:08;97073.38;;;-5.80;100.00
36600;BME280;35385;55.668;37.508;2024-01-15T04:22:09;97075.22;;;-5.82;100.00
36600;BME280;35385;55.668;37.508;2024-01-15T04:23:09;97065.38;;;-5.91;100.00
36600;BME280;35385;55.668;37.508;2024-01-15T04:24:09;97070.78;;;-5.80;100.00
36600;BME280;35385;55.668;37.508;2024-01-15T04:25:10;97069.66;;;-5.76;100.00
36600;BME280;35385;55.668;37.508;2024-01-15T04:26:10;97080.25;;;-5.79;100.00
36600;BME280;35385;55.668;37.508;2024-01-15T04:27:11;97074.31;;;-5.81;100.00
36600;BME280;35385;55.668;37.508;2024-01-15T04:28:11;97059.75;;;-5.70;100.00
36600;BME280;35385;55.668;37.508;2024-01-15T04:29:12;97057.97;;;-5.69;100.00
36600;BME280;35385;55.668;37.508;2024-01-15T04:30:12;97056.47;;;-5.73;100.00
36600;BME280;35385;55.668;37.508;2024-01-15T04:31:23;97062.59;;;-5.74;100.00
36600;BME280;35385;55.668;37.508;2024-01-15T04:32:23;97058.88;;;-5.84;100.00
36600;BME280;35385;55.668;37.508;2024-01-15T04:33:24;97054.25;;;-5.93;100.00
36600;BME280;35385;55.668;37.508;2024-01-15T04:34:24;97062.78;;;-5.91;100.00
36600;BME280;35385;55.668;37.508;2024-01-15T04:35:25;97061.47;;;-5.84;100.00
36600;BME280;35385;55.668;37.508;2024-01-15T04:36:25;97047.72;;;-5.86;100.00
36600;BME280;35385;55.668;37.508;2024-01-15T04:37:25;97055.63;;;-5.88;100.00
36600;BME280;35385;55.668;37.508;2024-01-15T04:38:26;97063.75;;;-5.78;100.00
36600;BME280;35385;55.668;37.508;2024-01-15T04:39:26;97059.09;;;-5.73;100.00
36600;BME280;35385;55.668;37.508;2024-01-15T04:40:27;97057.31;;;-5.73;100.00
36600;BME280;35385;55.668;37.508;2024-01-15T04:41:27;97050.28;;;-5.71;100.00
36600;BME280;35385;55.668;37.508;2024-01-15T04:42:28;97059.66;;;-5.68;100.00
36600;BME280;35385;55.668;37.508;2024-01-15T04:43:28;97062.09;;;-5.65;100.00
36600;BME280;35385;55.668;37.508;2024-01-15T04:44:28;97064.69;;;-5.65;100.00
36600;BME280;35385;55.668;37.508;2024-01-15T04:45:29;97058.66;;;-5.65;100.00
36600;BME280;35385;55.668;37.508;2024-01-15T04:46:30;97045.56;;;-5.64;100.00
36600;BME280;35385;55.668;37.508;2024-01-15T04:47:30;97060.03;;;-5.60;100.00
36600;BME280;35385;55.668;37.508;2024-01-15T04:48:31;97055.56;;;-5.72;100.00
36600;BME280;35385;55.668;37.508;2024-01-15T04:49:31;97056.84;;;-5.79;100.00
36600;BME280;35385;55.668;37.508;2024-01-15T04:50:32;97047.75;;;-5.72;100.00
36600;BME280;35385;55.668;37.508;2024-01-15T04:51:32;97054.91;;;-5.61;100.00
36600;BME280;35385;55.668;37.508;2024-01-15T04:52:32;97058.09;;;-5.56;100.00
36600;BME280;35385;55.668;37.508;2024-01-15T04:53:34;97061.34;;;-5.53;100.00
36600;BME280;35385;55.668;37.508;2024-01-15T04:54:35;97060.34;;;-5.50;100.00
36600;BME280;35385;55.668;37.508;2024-01-15T04:55:35;97057.84;;;-5.52;100.00
36600;BME280;35385;55.668;37.508;2024-01-15T04:56:35;97055.06;;;-5.49;100.00
36600;BME280;35385;55.668;37.508;2024-01-15T04:57:36;97058.84;;;-5.54;100.00
36600;BME280;35385;55.668;37.508;2024-01-15T04:58:36;97058.00;;;-5.55;100.00
36600;BME280;35385;55.668;37.508;2024-01-15T04:59:36;97057.84;;;-5.52;100.00
36600;BME280;35385;55.668;37.508;2024-01-15T05:00:37;97070.09;;;-5.54;100.00
36600;BME280;35385;55.668;37.508;2024-01-15T05:01:37;97057.25;;;-5.57;100.00
36600;BME280;35385;55.668;37.508;2024-01-15T05:02:38;97054.47;;;-5.54;100.00
36600;BME280;35385;55.668;37.508;2024-01-15T05:03:38;97057.25;;;-5.57;100.00
36600;BME280;35385;55.668;37.508;2024-01-15T05:04:39;97052.81;;;-5.55;100.00
36600;BME280;35385;55.668;37.508;2024-01-15T05:05:39;97056.91;;;-5.51;100.00
36600;BME280;35385;55.668;37.508;2024-01-15T05:06:40;97049.75;;;-5.47;100.00
36600;BME280;35385;55.668;37.508;2024-01-15T05:07:40;97046.22;;;-5.46;100.00
36600;BME280;35385;55.668;37.508;2024-01-15T05:08:41;97054.84;;;-5.46;100.00
36600;BME280;35385;55.668;37.508;2024-01-15T05:09:41;97054.59;;;-5.41;100.00
36600;BME280;35385;55.668;37.508;2024-01-15T05:10:42;97048.72;;;-5.45;100.00
36600;BME280;35385;55.668;37.508;2024-01-15T05:11:42;97056.00;;;-5.36;100.00
36600;BME280;35385;55.668;37.508;2024-01-15T05:12:42;97055.44;;;-5.41;100.00
36600;BME280;35385;55.668;37.508;2024-01-15T05:13:43;97053.56;;;-5.39;100.00